Time;durP1;ratioP1;P1;durP2;ratioP2;P2;SDS_P1;SDS_P2;PMS_P1;PMS_P2;Temp;Humidity;BMP_temperature;BMP_pressure;BME280_temperature;BME280_humidity;BME280_pressure;Samples;Min_cycle;Max_cycle;Signal;HPM_P1;HPM_P2
2021/06/20 00:00:32;;;;;;;51.45;20.05;;;16.30;99.90;;;;;;5090701;28;20036;-76
2021/06/20 00:02:58;;;;;;;53.03;21.02;;;16.20;99.90;;;;;;5092371;28;20055;-76
2021/06/20 00:05:30;;;;;;;51.15;21.08;;;16.20;99.90;;;;;;5091828;28;20050;-76
2021/06/20 00:07:58;;;;;;;41.28;18.65;;;16.30;99.90;;;;;;5094202;28;20028;-75
2021/06/20 00:10:27;;;;;;;55.72;19.58;;;16.30;99.90;;;;;;5095971;28;20020;-75
2021/06/20 00:12:53;;;;;;;43.80;18.02;;;16.40;99.90;;;;;;5096105;28;20028;-74
2021/06/20 00:15:20;;;;;;;42.65;17.40;;;16.40;99.90;;;;;;5095528;28;20066;-75
2021/06/20 00:17:46;;;;;;;42.58;18.58;;;16.40;99.90;;;;;;5097408;28;20484;-75
2021/06/20 00:20:15;;;;;;;43.40;17.80;;;16.40;99.90;;;;;;5096120;28;20024;-74
2021/06/20 00:22:41;;;;;;;47.92;18.92;;;16.40;99.90;;;;;;5095084;28;20101;-75
2021/06/20 00:25:07;;;;;;;53.97;19.35;;;16.40;99.90;;;;;;5095920;28;20438;-75
2021/06/20 00:27:33;;;;;;;51.95;19.63;;;16.40;99.90;;;;;;5097924;28;20484;-75
2021/06/20 00:29:59;;;;;;;60.33;21.27;;;16.30;99.90;;;;;;5101834;28;20027;-75
2021/06/20 00:32:25;;;;;;;61.40;20.95;;;16.30;99.90;;;;;;5109100;28;20051;-75
2021/06/20 00:34:52;;;;;;;53.13;19.42;;;16.30;99.90;;;;;;5116703;28;20396;-75
2021/06/20 00:37:18;;;;;;;61.40;20.08;;;16.40;99.90;;;;;;5114889;28;20116;-75
2021/06/20 00:39:44;;;;;;;51.80;19.45;;;16.40;99.90;;;;;;5115835;28;20040;-75
2021/06/20 00:42:09;;;;;;;47.00;19.13;;;16.40;99.90;;;;;;5117413;28;20005;-76
2021/06/20 00:44:49;;;;;;;49.05;19.80;;;16.40;99.90;;;;;;5116821;28;20419;-76
2021/06/20 00:47:18;;;;;;;50.90;19.33;;;16.50;99.90;;;;;;5116836;28;20043;-76
2021/06/20 00:49:45;;;;;;;48.83;18.45;;;16.60;99.90;;;;;;5118206;28;20039;-77
2021/06/20 00:52:12;;;;;;;43.00;18.98;;;16.60;99.90;;;;;;5118440;28;20043;-76
2021/06/20 00:54:38;;;;;;;49.42;18.70;;;16.60;99.90;;;;;;5120883;28;20012;-77
2021/06/20 00:57:04;;;;;;;49.97;19.10;;;16.70;99.90;;;;;;5119106;28;20038;-77
2021/06/20 00:59:30;;;;;;;52.85;18.95;;;16.70;99.90;;;;;;5119427;28;20012;-77
2021/06/20 01:01:56;;;;;;;56.10;21.10;;;16.60;99.90;;;;;;5119060;28;20028;-77
2021/06/20 01:04:22;;;;;;;50.80;19.77;;;16.60;99.90;;;;;;5119153;28;20046;-77
2021/06/20 01:06:48;;;;;;;49.15;19.60;;;16.60;99.90;;;;;;5118365;28;20058;-77
2021/06/20 01:09:15;;;;;;;56.55;20.13;;;16.60;99.90;;;;;;5119033;28;20067;-77
2021/06/20 01:11:41;;;;;;;50.55;20.00;;;16.60;99.90;;;;;;5118270;28;20023;-77
2021/06/20 01:14:07;;;;;;;56.75;21.33;;;16.60;99.90;;;;;;5121056;28;20062;-77
2021/06/20 01:16:51;;;;;;;54.50;21.52;;;16.60;99.90;;;;;;5117502;28;20052;-78
2021/06/20 01:19:19;;;;;;;54.63;21.35;;;16.60;99.90;;;;;;5119017;28;20011;-77
2021/06/20 01:21:45;;;;;;;64.80;23.27;;;16.60;99.90;;;;;;5117789;28;20067;-77
2021/06/20 01:24:10;;;;;;;69.35;22.50;;;16.70;99.90;;;;;;5112264;28;20028;-73
2021/06/20 01:26:36;;;;;;;58.25;21.52;;;16.70;99.90;;;;;;5098030;28;20016;-77
2021/06/20 01:29:04;;;;;;;54.00;21.42;;;16.70;99.90;;;;;;5101150;28;20024;-77
2021/06/20 01:31:32;;;;;;;59.72;21.40;;;16.70;99.90;;;;;;5099066;28;20024;-76
2021/06/20 01:33:57;;;;;;;60.88;21.90;;;16.80;99.90;;;;;;5098822;28;20418;-76
2021/06/20 01:36:23;;;;;;;70.13;22.98;;;16.80;99.90;;;;;;5095745;28;20032;-77
2021/06/20 01:38:49;;;;;;;62.20;22.45;;;16.80;99.90;;;;;;5098913;28;20040;-77
2021/06/20 01:41:15;;;;;;;63.58;22.75;;;16.70;99.90;;;;;;5096036;28;20133;-76
2021/06/20 01:43:40;;;;;;;74.90;25.77;;;16.70;99.90;;;;;;5095699;28;20097;-77
2021/06/20 01:46:06;;;;;;;65.30;22.48;;;16.70;99.90;;;;;;5095937;28;20032;-76
2021/06/20 01:48:31;;;;;;;72.88;23.17;;;16.70;99.90;;;;;;5095247;28;20032;-77
2021/06/20 01:50:57;;;;;;;64.10;23.88;;;16.70;99.90;;;;;;5095766;28;20406;-76
2021/06/20 01:53:23;;;;;;;68.20;23.15;;;16.70;99.90;;;;;;5093240;28;20032;-78
2021/06/20 01:55:49;;;;;;;65.05;21.95;;;16.70;99.90;;;;;;5094428;28;20485;-77
2021/06/20 01:58:17;;;;;;;52.25;19.42;;;16.70;99.90;;;;;;5094209;28;20031;-77
2021/06/20 02:00:50;;;;;;;65.47;21.98;;;16.70;99.90;;;;;;5090196;28;20051;-76
2021/06/20 02:03:18;;;;;;;50.08;18.73;;;16.80;99.90;;;;;;5091047;28;20035;-76
2021/06/20 02:05:46;;;;;;;45.92;18.38;;;16.80;99.90;;;;;;5092491;28;20084;-78
2021/06/20 02:08:12;;;;;;;62.40;19.95;;;16.90;99.90;;;;;;5093000;28;20111;-78
2021/06/20 02:10:41;;;;;;;46.80;18.88;;;16.90;99.90;;;;;;5092054;28;20020;-77
2021/06/20 02:13:07;;;;;;;52.05;19.85;;;16.90;99.90;;;;;;5094345;28;20482;-77
2021/06/20 02:15:33;;;;;;;57.33;21.23;;;16.90;99.90;;;;;;5090138;28;20024;-78
2021/06/20 02:17:58;;;;;;;53.55;20.05;;;16.90;99.90;;;;;;5096204;28;20442;-78
2021/06/20 02:20:24;;;;;;;58.88;21.75;;;16.90;99.90;;;;;;5093950;28;20027;-78
2021/06/20 02:22:51;;;;;;;63.75;21.60;;;16.90;99.90;;;;;;5094541;28;20123;-78
2021/06/20 02:25:19;;;;;;;67.47;22.58;;;16.80;99.90;;;;;;5099147;28;20092;-77
2021/06/20 02:27:47;;;;;;;38.10;14.88;;;16.90;99.90;;;;;;5099676;28;20039;-77
2021/06/20 02:30:13;;;;;;;;;;;16.80;99.90;;;;;;5098671;28;21117;-78
2021/06/20 02:32:39;;;;;;;24.60;10.90;;;16.60;99.90;;;;;;5097822;28;19908;-78
2021/06/20 02:35:06;;;;;;;20.38;9.15;;;16.30;99.90;;;;;;5102890;28;20468;-76
2021/06/20 02:37:32;;;;;;;16.13;8.23;;;16.10;99.90;;;;;;5101605;28;20072;-77
2021/06/20 02:39:59;;;;;;;15.98;7.70;;;16.10;99.90;;;;;;5103579;28;20032;-78
2021/06/20 02:42:24;;;;;;;14.80;7.85;;;16.00;99.90;;;;;;5106571;28;20032;-76
2021/06/20 02:44:50;;;;;;;12.52;7.35;;;15.90;99.90;;;;;;5101911;28;20043;-76
2021/06/20 02:47:16;;;;;;;10.50;6.70;;;15.80;99.90;;;;;;5103542;28;20107;-77
2021/06/20 02:49:43;;;;;;;9.13;5.45;;;15.70;99.90;;;;;;5104702;28;20032;-76
2021/06/20 02:52:11;;;;;;;6.95;4.65;;;15.60;99.90;;;;;;5105333;28;20027;-76
2021/06/20 02:54:49;;;;;;;5.93;4.20;;;15.60;99.90;;;;;;5101184;28;20038;-77
2021/06/20 02:57:15;;;;;;;;;;;15.60;99.90;;;;;;5104682;28;20020;-75
2021/06/20 02:59:40;;;;;;;6.68;4.72;;;15.50;99.90;;;;;;5107133;28;19892;-76
2021/06/20 03:02:06;;;;;;;8.98;4.35;;;15.50;99.90;;;;;;5107642;28;20104;-76
2021/06/20 03:04:32;;;;;;;6.90;4.25;;;15.50;99.90;;;;;;5105662;28;20056;-76
2021/06/20 03:06:57;;;;;;;5.75;3.83;;;15.50;99.90;;;;;;5105728;28;20047;-76
2021/06/20 03:09:23;;;;;;;7.70;3.50;;;15.50;99.90;;;;;;5105740;28;20024;-76
2021/06/20 03:11:48;;;;;;;5.03;3.70;;;15.60;99.90;;;;;;5107042;28;20028;-76
2021/06/20 03:14:15;;;;;;;6.47;3.53;;;15.60;99.90;;;;;;5104617;28;20028;-76
2021/06/20 03:16:45;;;;;;;5.55;3.42;;;15.50;99.90;;;;;;5101176;28;20474;-76
2021/06/20 03:19:11;;;;;;;4.10;3.10;;;15.50;99.90;;;;;;5100694;28;20040;-77
2021/06/20 03:21:37;;;;;;;5.43;3.55;;;15.60;99.90;;;;;;5101250;28;20107;-77
2021/06/20 03:24:03;;;;;;;5.45;3.30;;;15.60;99.90;;;;;;5101170;28;20048;-76
2021/06/20 03:26:29;;;;;;;5.10;2.95;;;15.60;99.90;;;;;;5100466;28;20055;-76
2021/06/20 03:28:56;;;;;;;4.30;3.03;;;15.70;99.90;;;;;;5102898;28;20031;-76
2021/06/20 03:31:22;;;;;;;4.95;3.17;;;15.70;99.90;;;;;;5099243;28;19996;-76
2021/06/20 03:33:48;;;;;;;3.50;2.80;;;15.80;99.90;;;;;;5100397;28;20031;-76
2021/06/20 03:36:14;;;;;;;3.60;2.50;;;15.90;99.90;;;;;;5100623;28;20411;-76
2021/06/20 03:38:40;;;;;;;4.60;2.47;;;15.90;99.90;;;;;;5102003;28;20024;-76
2021/06/20 03:41:10;;;;;;;5.38;3.10;;;16.00;99.90;;;;;;5105013;28;20526;-77
2021/06/20 03:43:37;;;;;;;4.00;2.80;;;16.10;99.90;;;;;;5112221;28;20031;-76
2021/06/20 03:46:03;;;;;;;11.70;4.22;;;16.10;99.90;;;;;;5108853;28;20096;-76
2021/06/20 03:48:30;;;;;;;3.50;2.55;;;16.20;99.90;;;;;;5108475;28;20031;-76
2021/06/20 03:50:56;;;;;;;9.80;2.85;;;16.20;99.90;;;;;;5109375;28;20039;-76
2021/06/20 03:53:22;;;;;;;5.00;2.60;;;16.30;99.90;;;;;;5110390;28;20032;-76
2021/06/20 03:55:47;;;;;;;3.22;2.40;;;16.40;99.90;;;;;;5109050;28;20032;-76
2021/06/20 03:58:13;;;;;;;5.20;2.88;;;16.40;99.90;;;;;;5109445;28;20024;-77
2021/06/20 04:00:39;;;;;;;8.98;2.78;;;16.50;99.90;;;;;;5111256;28;20028;-76
2021/06/20 04:03:05;;;;;;;6.82;2.78;;;16.30;99.90;;;;;;5109868;28;20028;-77
2021/06/20 04:05:32;;;;;;;4.55;2.65;;;16.30;99.90;;;;;;5101674;28;20048;-77
2021/06/20 04:07:58;;;;;;;4.85;2.72;;;16.30;99.90;;;;;;5108150;28;20502;-77
2021/06/20 04:10:24;;;;;;;5.00;2.80;;;16.30;99.90;;;;;;5107214;28;20028;-75
2021/06/20 04:12:49;;;;;;;5.07;2.60;;;16.40;99.90;;;;;;5102594;28;20047;-75
2021/06/20 04:15:15;;;;;;;5.68;2.40;;;16.40;99.90;;;;;;5096071;28;20119;-75
2021/06/20 04:17:41;;;;;;;9.00;2.50;;;16.40;99.90;;;;;;5096285;28;20033;-75
2021/06/20 04:20:09;;;;;;;4.95;1.80;;;16.30;99.90;;;;;;5097239;28;20031;-76
2021/06/20 04:22:36;;;;;;;7.30;3.50;;;16.30;99.90;;;;;;5096194;28;20013;-76
2021/06/20 04:25:01;;;;;;;2.65;2.10;;;16.30;99.90;;;;;;5100305;28;20110;-76
2021/06/20 04:27:27;;;;;;;3.50;2.00;;;16.30;99.90;;;;;;5099465;28;20047;-76
2021/06/20 04:29:52;;;;;;;3.83;2.10;;;16.30;99.90;;;;;;5098200;28;20081;-77
2021/06/20 04:32:18;;;;;;;3.40;1.65;;;16.40;99.90;;;;;;5091562;28;20462;-76
2021/06/20 04:34:44;;;;;;;1.42;1.33;;;16.40;99.90;;;;;;5090800;28;20036;-76
2021/06/20 04:37:12;;;;;;;1.85;1.50;;;16.40;99.90;;;;;;5091260;28;20024;-75
2021/06/20 04:39:38;;;;;;;4.28;1.48;;;16.40;99.90;;;;;;5092388;28;20025;-75
2021/06/20 04:42:06;;;;;;;2.33;1.40;;;16.40;99.90;;;;;;5088509;28;20104;-75
2021/06/20 04:44:45;;;;;;;1.48;1.38;;;16.40;99.90;;;;;;5089182;28;20042;-75
2021/06/20 04:47:13;;;;;;;1.38;1.10;;;16.40;99.90;;;;;;5091370;28;20020;-76
2021/06/20 04:49:39;;;;;;;;;;;16.40;99.90;;;;;;5089408;28;20115;-76
2021/06/20 04:52:06;;;;;;;0.85;0.82;;;16.50;99.90;;;;;;5095374;28;20367;-76
2021/06/20 04:54:33;;;;;;;1.77;1.00;;;16.50;99.90;;;;;;5090991;28;20560;-76
2021/06/20 04:56:59;;;;;;;2.92;0.95;;;16.50;99.90;;;;;;5093181;28;20396;-75
2021/06/20 04:59:24;;;;;;;1.38;0.95;;;16.60;99.90;;;;;;5087579;28;20028;-76
2021/06/20 05:01:50;;;;;;;3.33;1.00;;;16.70;99.90;;;;;;5089041;28;20551;-75
2021/06/20 05:04:15;;;;;;;1.30;1.10;;;16.80;99.90;;;;;;5092237;28;20024;-75
2021/06/20 05:06:41;;;;;;;0.93;0.90;;;16.80;99.90;;;;;;5091045;28;20040;-76
2021/06/20 05:09:07;;;;;;;1.55;0.93;;;16.90;99.90;;;;;;5093011;28;20047;-75
2021/06/20 05:11:32;;;;;;;1.00;0.90;;;17.00;99.90;;;;;;5089728;28;20024;-76
2021/06/20 05:13:58;;;;;;;1.77;1.00;;;17.00;99.90;;;;;;5089952;28;20020;-76
2021/06/20 05:16:23;;;;;;;1.05;0.90;;;16.90;99.90;;;;;;5083853;28;20400;-76
2021/06/20 05:18:49;;;;;;;0.98;0.93;;;17.00;99.90;;;;;;5093625;28;20032;-76
2021/06/20 05:21:15;;;;;;;1.00;0.90;;;17.00;99.90;;;;;;5093158;28;20055;-76
2021/06/20 05:23:41;;;;;;;4.13;0.90;;;17.10;99.90;;;;;;5089218;28;20040;-76
2021/06/20 05:26:07;;;;;;;1.60;1.20;;;17.10;99.90;;;;;;5089458;28;20078;-76
2021/06/20 05:28:32;;;;;;;0.80;0.80;;;17.10;99.90;;;;;;5088252;28;20110;-75
2021/06/20 05:30:58;;;;;;;1.83;0.90;;;17.20;99.90;;;;;;5087359;28;20336;-75
2021/06/20 05:33:24;;;;;;;2.00;0.75;;;17.20;99.90;;;;;;5090436;28;20507;-76
2021/06/20 05:35:49;;;;;;;0.75;0.70;;;17.30;99.90;;;;;;5090936;28;20033;-76
2021/06/20 05:38:15;;;;;;;0.85;0.85;;;17.20;99.90;;;;;;5091631;28;20027;-76
2021/06/20 05:40:42;;;;;;;0.70;0.70;;;17.30;99.90;;;;;;5094699;28;20492;-76
2021/06/20 05:43:08;;;;;;;2.25;0.75;;;17.30;99.90;;;;;;5091146;28;20031;-76
2021/06/20 05:45:35;;;;;;;1.40;0.77;;;17.30;99.90;;;;;;5090933;28;20110;-76
2021/06/20 05:48:00;;;;;;;2.70;0.95;;;17.30;99.90;;;;;;5089563;28;20044;-75
2021/06/20 05:50:26;;;;;;;0.88;0.65;;;17.30;99.90;;;;;;5092724;28;20497;-75
2021/06/20 05:52:55;;;;;;;0.80;0.80;;;17.30;99.90;;;;;;5093663;28;20020;-76
2021/06/20 05:55:21;;;;;;;1.67;1.05;;;17.30;99.90;;;;;;5088648;28;20036;-76
2021/06/20 05:57:47;;;;;;;1.17;1.08;;;17.20;99.90;;;;;;5094683;28;20027;-76
2021/06/20 06:00:13;;;;;;;6.63;1.20;;;17.20;99.90;;;;;;5094641;28;20426;-76
2021/06/20 06:02:39;;;;;;;2.90;0.85;;;17.20;99.90;;;;;;5095439;28;20042;-76
2021/06/20 06:05:07;;;;;;;0.98;0.90;;;17.10;99.90;;;;;;5093214;28;20551;-76
2021/06/20 06:07:33;;;;;;;1.45;1.35;;;17.10;99.90;;;;;;5092975;28;20036;-77
2021/06/20 06:09:59;;;;;;;1.00;1.00;;;17.10;99.90;;;;;;5100192;28;20046;-75
2021/06/20 06:12:24;;;;;;;1.60;1.50;;;17.10;99.90;;;;;;5113306;28;20039;-75
2021/06/20 06:14:52;;;;;;;1.38;1.27;;;17.10;99.90;;;;;;5113862;28;20284;-75
2021/06/20 06:17:20;;;;;;;1.90;1.42;;;17.10;99.90;;;;;;5113350;28;20047;-75
2021/06/20 06:19:47;;;;;;;1.50;1.40;;;17.20;99.90;;;;;;5111192;28;20111;-75
2021/06/20 06:22:15;;;;;;;1.40;1.30;;;17.20;99.90;;;;;;5114943;28;20039;-75
2021/06/20 06:24:41;;;;;;;1.58;1.48;;;17.20;99.90;;;;;;5113403;28;20051;-75
2021/06/20 06:27:07;;;;;;;1.42;1.33;;;17.20;99.90;;;;;;5111631;28;20040;-75
2021/06/20 06:29:33;;;;;;;2.00;1.80;;;17.20;99.90;;;;;;5107469;28;20079;-75
2021/06/20 06:31:59;;;;;;;1.65;1.55;;;17.20;99.90;;;;;;5110100;28;20013;-75
2021/06/20 06:34:24;;;;;;;2.08;1.88;;;17.30;99.90;;;;;;5115503;28;20024;-75
2021/06/20 06:36:51;;;;;;;2.17;1.98;;;17.30;99.90;;;;;;5114373;28;20050;-76
2021/06/20 06:39:17;;;;;;;1.97;1.87;;;17.40;99.90;;;;;;5114352;28;20012;-75
2021/06/20 06:41:42;;;;;;;2.13;2.00;;;17.40;99.90;;;;;;5105759;28;20051;-76
2021/06/20 06:44:08;;;;;;;1.70;1.60;;;17.40;99.90;;;;;;5111703;28;20031;-73
2021/06/20 06:46:33;;;;;;;1.95;1.85;;;17.40;99.90;;;;;;5092845;28;20502;-77
2021/06/20 06:48:59;;;;;;;3.13;2.20;;;17.40;99.90;;;;;;5097827;28;20044;-76
2021/06/20 06:51:25;;;;;;;2.10;1.83;;;17.40;99.90;;;;;;5093304;28;20028;-77
2021/06/20 06:53:50;;;;;;;2.47;2.28;;;17.40;99.90;;;;;;5095703;28;20028;-76
2021/06/20 06:56:16;;;;;;;2.35;2.25;;;17.50;99.90;;;;;;5090454;28;20373;-76
2021/06/20 06:58:41;;;;;;;2.70;2.50;;;17.40;99.90;;;;;;5084856;28;20028;-76
2021/06/20 07:01:07;;;;;;;4.05;2.30;;;17.40;99.90;;;;;;5085594;28;20128;-76
2021/06/20 07:03:33;;;;;;;2.38;2.28;;;17.50;99.90;;;;;;5092360;28;20056;-76
2021/06/20 07:05:59;;;;;;;2.03;1.92;;;17.60;99.90;;;;;;5081622;28;20029;-76
2021/06/20 07:08:24;;;;;;;2.47;1.83;;;17.70;99.90;;;;;;5092032;28;20075;-76
2021/06/20 07:10:50;;;;;;;1.98;1.88;;;17.70;99.90;;;;;;5083236;28;20479;-76
2021/06/20 07:13:15;;;;;;;2.45;1.95;;;17.60;99.90;;;;;;5094132;28;20036;-76
2021/06/20 07:15:41;;;;;;;2.03;1.92;;;17.60;99.90;;;;;;5092627;28;20035;-77
2021/06/20 07:18:06;;;;;;;2.03;1.92;;;17.60;99.90;;;;;;5089740;28;20062;-76
2021/06/20 07:20:32;;;;;;;1.65;1.55;;;17.80;99.90;;;;;;5099890;28;20456;-71
2021/06/20 07:22:58;;;;;;;2.65;2.47;;;17.80;99.90;;;;;;5075778;28;20027;-75
2021/06/20 07:25:23;;;;;;;2.70;2.45;;;17.90;99.90;;;;;;5075465;28;20044;-74
2021/06/20 07:27:50;;;;;;;3.03;2.83;;;17.90;99.90;;;;;;5089175;28;20064;-74
2021/06/20 07:30:18;;;;;;;3.78;3.40;;;18.00;99.90;;;;;;5073340;28;20456;-74
2021/06/20 07:32:44;;;;;;;4.20;3.90;;;18.10;99.90;;;;;;5083826;28;20024;-74
2021/06/20 07:35:11;;;;;;;4.90;4.40;;;18.10;99.90;;;;;;5089895;28;20101;-74
2021/06/20 07:37:38;;;;;;;4.60;4.30;;;18.20;99.90;;;;;;5087527;28;20057;-75
2021/06/20 07:40:07;;;;;;;4.72;4.32;;;18.20;99.90;;;;;;5091212;28;20047;-74
2021/06/20 07:42:32;;;;;;;4.72;4.40;;;18.20;99.90;;;;;;5087359;28;20174;-75
2021/06/20 07:44:58;;;;;;;5.07;4.43;;;18.30;99.90;;;;;;5086499;28;20120;-75
2021/06/20 07:47:24;;;;;;;5.15;4.63;;;18.50;99.90;;;;;;5086543;28;20039;-75
2021/06/20 07:49:49;;;;;;;4.60;4.30;;;18.80;99.90;;;;;;5086701;28;20024;-75
2021/06/20 07:52:15;;;;;;;4.10;3.80;;;18.90;99.90;;;;;;5090402;28;20028;-74
2021/06/20 07:54:49;;;;;;;3.97;3.72;;;19.20;99.90;;;;;;5083991;28;20063;-74
2021/06/20 07:57:19;;;;;;;3.65;3.35;;;19.20;99.90;;;;;;5089418;28;20039;-74
2021/06/20 07:59:46;;;;;;;3.47;3.28;;;19.30;99.90;;;;;;5082843;28;20140;-75
2021/06/20 08:02:12;;;;;;;3.67;3.38;;;19.40;99.90;;;;;;5088510;28;20035;-75
2021/06/20 08:04:39;;;;;;;4.45;4.15;;;19.50;99.90;;;;;;5087545;28;20459;-74
2021/06/20 08:07:05;;;;;;;3.72;3.50;;;19.30;99.90;;;;;;5091293;28;20119;-74
2021/06/20 08:09:30;;;;;;;4.13;3.83;;;19.30;99.90;;;;;;5089197;28;20056;-76
2021/06/20 08:11:56;;;;;;;4.07;3.78;;;19.60;99.90;;;;;;5089453;28;20154;-75
2021/06/20 08:14:22;;;;;;;4.40;4.10;;;19.80;99.90;;;;;;5084260;28;20040;-74
2021/06/20 08:16:47;;;;;;;4.65;4.35;;;20.10;99.90;;;;;;5085517;28;20465;-75
2021/06/20 08:19:16;;;;;;;5.22;4.82;;;20.30;99.90;;;;;;5083899;28;20055;-76
2021/06/20 08:21:43;;;;;;;4.47;4.07;;;20.30;99.90;;;;;;5079705;28;20020;-74
2021/06/20 08:24:10;;;;;;;4.47;4.17;;;20.40;99.90;;;;;;5085546;28;20086;-75
2021/06/20 08:26:36;;;;;;;4.33;4.03;;;20.50;99.90;;;;;;5086998;28;20043;-75
2021/06/20 08:29:02;;;;;;;6.72;3.83;;;20.60;99.90;;;;;;5089000;28;20024;-74
2021/06/20 08:31:27;;;;;;;4.80;4.50;;;20.90;99.90;;;;;;5086821;28;20035;-75
2021/06/20 08:33:53;;;;;;;4.93;4.53;;;20.90;99.90;;;;;;5090663;28;20086;-75
2021/06/20 08:36:19;;;;;;;4.43;4.13;;;20.80;99.90;;;;;;5096313;28;20115;-74
2021/06/20 08:38:44;;;;;;;4.60;4.20;;;20.70;99.90;;;;;;5093372;28;20365;-74
2021/06/20 08:41:14;;;;;;;5.20;4.80;;;20.60;99.90;;;;;;5093479;28;20024;-74
2021/06/20 08:43:40;;;;;;;5.93;4.38;;;20.60;99.90;;;;;;5090741;28;20032;-74
2021/06/20 08:46:06;;;;;;;4.45;4.15;;;20.60;99.90;;;;;;5092016;28;20024;-74
2021/06/20 08:48:35;;;;;;;4.15;3.85;;;20.90;99.90;;;;;;5106999;28;20388;-73
2021/06/20 08:51:01;;;;;;;4.30;4.00;;;21.10;99.90;;;;;;5101353;28;20387;-73
2021/06/20 08:53:26;;;;;;;4.50;4.20;;;20.90;99.90;;;;;;5092305;28;20021;-72
2021/06/20 08:55:52;;;;;;;6.55;4.55;;;20.80;99.90;;;;;;5096081;28;20020;-73
2021/06/20 08:58:20;;;;;;;5.85;5.35;;;20.70;99.90;;;;;;5093865;28;20043;-74
2021/06/20 09:00:46;;;;;;;6.32;5.72;;;20.60;99.90;;;;;;5095673;28;20107;-72
2021/06/20 09:03:12;;;;;;;6.90;6.22;;;20.50;99.90;;;;;;5092519;28;20490;-75
2021/06/20 09:05:38;;;;;;;6.47;5.70;;;20.30;99.90;;;;;;5089540;28;20043;-73
2021/06/20 09:08:16;;;;;;;6.20;5.57;;;20.40;99.90;;;;;;5095135;28;20039;-72
2021/06/20 09:10:42;;;;;;;5.57;5.10;;;20.40;99.90;;;;;;5099821;28;20194;-73
2021/06/20 09:13:08;;;;;;;6.85;6.25;;;20.50;99.90;;;;;;5092659;28;20084;-71
2021/06/20 09:15:34;;;;;;;5.82;5.43;;;20.50;99.90;;;;;;5094573;28;20035;-71
2021/06/20 09:18:07;;;;;;;5.90;5.40;;;20.50;99.90;;;;;;5096643;28;20035;-73
2021/06/20 09:20:45;;;;;;;6.65;5.97;;;20.60;99.90;;;;;;5090419;28;20032;-72
2021/06/20 09:23:13;;;;;;;6.20;5.60;;;20.80;99.90;;;;;;5092648;28;20376;-73
2021/06/20 09:25:41;;;;;;;8.70;6.78;;;21.00;99.90;;;;;;5092599;28;20027;-73
2021/06/20 09:28:09;;;;;;;8.45;7.03;;;21.10;99.90;;;;;;5090057;28;20024;-72
2021/06/20 09:30:50;;;;;;;8.07;7.28;;;21.20;99.90;;;;;;5085075;28;20016;-72
2021/06/20 09:33:17;;;;;;;8.40;6.82;;;21.10;99.90;;;;;;5092538;28;20028;-73
2021/06/20 09:35:47;;;;;;;8.67;7.37;;;21.20;99.90;;;;;;5094583;28;20425;-72
2021/06/20 09:38:20;;;;;;;8.38;7.68;;;21.30;99.90;;;;;;5091868;28;20773;-72
2021/06/20 09:40:46;;;;;;;7.82;6.93;;;21.40;99.90;;;;;;5093499;28;20020;-73
2021/06/20 09:43:16;;;;;;;8.60;7.28;;;21.40;99.90;;;;;;5092270;28;20074;-73
2021/06/20 09:45:48;;;;;;;7.60;6.97;;;21.50;99.90;;;;;;5093479;28;20111;-72
2021/06/20 09:48:26;;;;;;;6.60;6.03;;;21.70;99.90;;;;;;5095525;28;20062;-73
2021/06/20 09:50:53;;;;;;;9.32;6.35;;;21.90;99.90;;;;;;5093664;28;20073;-72
2021/06/20 09:53:29;;;;;;;9.60;7.30;;;21.90;99.90;;;;;;5092792;28;20024;-73
2021/06/20 09:56:22;;;;;;;7.40;6.63;;;21.70;99.90;;;;;;5092193;28;20103;-73
2021/06/20 09:58:59;;;;;;;7.63;6.20;;;21.60;99.90;;;;;;5090178;28;20502;-73
2021/06/20 10:01:27;;;;;;;7.20;6.55;;;21.40;99.90;;;;;;5101727;28;20044;-73
2021/06/20 10:03:54;;;;;;;6.55;6.00;;;21.20;99.90;;;;;;5094447;28;20035;-73
2021/06/20 10:06:19;;;;;;;6.45;5.85;;;21.50;99.90;;;;;;5093531;28;20040;-74
2021/06/20 10:08:46;;;;;;;5.55;4.63;;;22.60;99.90;;;;;;5083481;28;20106;-73
2021/06/20 10:11:13;;;;;;;7.05;4.03;;;23.40;99.90;;;;;;5093335;28;20572;-73
2021/06/20 10:13:39;;;;;;;3.05;2.80;;;23.60;99.90;;;;;;5091752;28;20028;-74
2021/06/20 10:16:23;;;;;;;2.75;2.53;;;23.50;99.90;;;;;;5091776;28;20031;-74
2021/06/20 10:18:52;;;;;;;4.47;2.78;;;23.10;99.90;;;;;;5092401;28;20035;-74
2021/06/20 10:21:47;;;;;;;4.15;2.75;;;22.70;99.90;;;;;;5092216;28;20024;-74
2021/06/20 10:24:14;;;;;;;3.05;2.55;;;22.50;99.90;;;;;;5086479;28;20110;-73
2021/06/20 10:26:46;;;;;;;;;;;22.80;99.90;;;;;;5084894;28;20061;-73
2021/06/20 10:29:16;;;;;;;5.25;2.40;;;22.80;99.90;;;;;;5092978;28;19990;-74
2021/06/20 10:31:42;;;;;;;2.75;2.40;;;22.70;99.90;;;;;;5089567;28;20036;-74
2021/06/20 10:34:19;;;;;;;3.30;2.30;;;22.60;99.90;;;;;;5090768;28;20023;-74
2021/06/20 10:36:46;;;;;;;;;;;22.40;99.90;;;;;;5083995;28;20033;-74
2021/06/20 10:39:13;;;;;;;3.55;2.25;;;22.20;99.90;;;;;;5100470;28;20198;-74
2021/06/20 10:41:38;;;;;;;4.40;2.22;;;21.90;99.90;;;;;;5085799;28;20028;-75
2021/06/20 10:44:04;;;;;;;7.28;4.07;;;21.90;99.90;;;;;;5081801;28;20404;-74
2021/06/20 10:46:30;;;;;;;5.30;4.13;;;21.80;99.90;;;;;;5080314;28;20020;-75
2021/06/20 10:48:57;;;;;;;7.30;4.40;;;21.70;99.90;;;;;;5080853;28;20468;-73
2021/06/20 10:51:23;;;;;;;9.70;5.15;;;21.60;99.90;;;;;;5083822;28;20016;-74
2021/06/20 10:53:50;;;;;;;6.97;4.70;;;21.70;99.90;;;;;;5082314;28;20028;-73
2021/06/20 10:56:25;;;;;;;9.65;5.13;;;21.70;99.90;;;;;;5082488;28;20028;-74
2021/06/20 10:58:52;;;;;;;9.30;5.30;;;21.80;99.90;;;;;;5082836;28;20036;-75
2021/06/20 11:01:19;;;;;;;13.77;7.40;;;22.00;99.90;;;;;;5081596;28;20077;-75
2021/06/20 11:03:51;;;;;;;11.60;6.72;;;22.40;99.90;;;;;;5082614;28;20075;-75
2021/06/20 11:06:19;;;;;;;16.73;8.70;;;22.50;99.90;;;;;;5098341;28;20023;-75
2021/06/20 11:09:03;;;;;;;14.57;7.78;;;22.60;99.90;;;;;;5098360;28;20027;-75
2021/06/20 11:11:31;;;;;;;23.25;12.32;;;22.60;99.90;;;;;;5093997;28;20059;-73
2021/06/20 11:13:57;;;;;;;26.45;11.27;;;22.70;99.90;;;;;;5089654;28;20028;-73
2021/06/20 11:16:30;;;;;;;17.38;7.95;;;22.80;99.90;;;;;;5081506;28;20027;-74
2021/06/20 11:19:26;;;;;;;17.95;8.57;;;23.00;99.90;;;;;;5093643;28;20044;-74
2021/06/20 11:21:58;;;;;;;6.20;3.72;;;23.20;99.90;;;;;;5086677;28;20067;-74
2021/06/20 11:24:44;;;;;;;2.90;2.25;;;22.50;99.90;;;;;;5087918;28;20027;-74
2021/06/20 11:27:10;;;;;;;5.30;2.15;;;21.80;99.90;;;;;;5082098;28;20061;-73
2021/06/20 11:29:38;;;;;;;7.38;3.20;;;21.40;99.90;;;;;;5085886;28;20067;-75
2021/06/20 11:32:04;;;;;;;;;;;21.10;99.90;;;;;;5086582;28;20029;-75
2021/06/20 11:34:29;;;;;;;13.32;6.00;;;20.80;99.90;;;;;;5088625;28;19915;-75
2021/06/20 11:36:55;;;;;;;7.63;2.60;;;20.80;99.90;;;;;;5091973;28;20023;-75
2021/06/20 11:39:21;;;;;;;5.15;2.53;;;20.90;99.90;;;;;;5084934;28;20092;-74
2021/06/20 11:41:52;;;;;;;4.57;2.13;;;20.90;99.90;;;;;;5093092;28;20052;-74
2021/06/20 11:44:20;;;;;;;3.65;2.30;;;20.90;99.90;;;;;;5090690;28;20063;-74
2021/06/20 11:46:47;;;;;;;;;;;21.10;99.90;;;;;;5090389;28;20043;-74
2021/06/20 11:49:18;;;;;;;2.53;2.05;;;21.10;99.90;;;;;;5088265;28;19999;-75
2021/06/20 11:51:46;;;;;;;5.38;2.42;;;21.20;99.90;;;;;;5088933;28;20123;-74
2021/06/20 11:54:16;;;;;;;4.68;2.00;;;21.20;99.90;;;;;;5085647;28;20076;-75
2021/06/20 11:56:45;;;;;;;9.05;2.30;;;21.70;99.90;;;;;;5091023;28;20063;-75
2021/06/20 11:59:11;;;;;;;5.97;2.05;;;22.10;99.90;;;;;;5090549;28;20395;-75
2021/06/20 12:01:48;;;;;;;5.38;2.28;;;22.20;99.90;;;;;;5089827;28;20071;-75
2021/06/20 12:04:22;;;;;;;3.53;1.90;;;22.50;99.90;;;;;;5092853;28;20115;-75
2021/06/20 12:06:49;;;;;;;5.07;2.20;;;22.90;99.90;;;;;;5095877;28;20048;-75
2021/06/20 12:09:15;;;;;;;4.68;2.00;;;23.10;99.90;;;;;;5094629;28;20361;-74
2021/06/20 12:11:41;;;;;;;3.38;2.33;;;23.00;99.90;;;;;;5092834;28;20120;-73
2021/06/20 12:14:18;;;;;;;5.32;2.17;;;22.90;99.90;;;;;;5087748;28;20036;-75
2021/06/20 12:16:46;;;;;;;3.67;2.00;;;23.00;99.90;;;;;;5084537;28;20521;-74
2021/06/20 12:19:16;;;;;;;5.00;2.42;;;23.40;99.90;;;;;;5091640;28;20028;-75
2021/06/20 12:21:42;;;;;;;5.35;2.70;;;23.70;99.90;;;;;;5084059;28;20043;-76
2021/06/20 12:24:11;;;;;;;4.32;2.05;;;23.80;99.90;;;;;;5086144;28;20128;-74
2021/06/20 12:26:37;;;;;;;2.97;2.30;;;23.90;99.90;;;;;;5086724;28;20579;-74
2021/06/20 12:29:04;;;;;;;3.92;2.20;;;24.00;99.90;;;;;;5082196;28;20031;-75
2021/06/20 12:31:30;;;;;;;3.60;2.22;;;24.20;99.90;;;;;;5086355;28;20024;-74
2021/06/20 12:34:04;;;;;;;4.68;2.40;;;24.10;99.90;;;;;;5081982;28;20024;-75
2021/06/20 12:36:30;;;;;;;4.25;2.33;;;24.10;99.90;;;;;;5087734;28;20028;-75
2021/06/20 12:39:01;;;;;;;3.38;2.25;;;24.00;99.90;;;;;;5086235;28;20020;-74
2021/06/20 12:41:29;;;;;;;4.78;2.25;;;23.90;99.90;;;;;;5086798;28;20039;-74
2021/06/20 12:44:08;;;;;;;6.13;2.17;;;23.60;99.90;;;;;;5087960;28;20476;-74